Terminal Aerodrome Forecast
Issued by NWS Twin Cities, MN

Home | Current Version | Previous Version | Text Only | Print | Product List | Glossary Off
Versions: 1 2 3 4 5 6 7 8 9 10 11 12 13 14 15 16 17 18 19 20 21 22 23 24 25 26 27 28

000
FTUS43 KMPX 190520
TAFMSP
TAF
KMSP 190520Z 1906/2012 12011KT 6SM -RA OVC050
     FM191000 12016G22KT 4SM -RA SCT015 OVC025
     FM191500 19012G17KT P6SM VCSH OVC020
     FM191700 26011G18KT P6SM SCT020 OVC035
     FM192200 32013G21KT P6SM SCT020 BKN040
     FM200200 32011KT P6SM BKN100=

USA.gov is the U.S. government's official web portal to all federal, state and local government web resources and services.